Time;durP1;ratioP1;P1;durP2;ratioP2;P2;SDS_P1;SDS_P2;PMS_P1;PMS_P2;Temp;Humidity;BMP_temperature;BMP_pressure;BME280_temperature;BME280_humidity;BME280_pressure;Samples;Min_cycle;Max_cycle;Signal;HPM_P1;HPM_P2
2022/05/24 00:02:03;;;;;;;0.70;0.50;;;16.80;73.80;;;;;;5114796;28;20015;-73
2022/05/24 00:04:29;;;;;;;2.50;0.65;;;16.70;73.40;;;;;;5114289;28;20050;-73
2022/05/24 00:06:54;;;;;;;2.30;0.40;;;16.80;72.70;;;;;;5114660;28;20391;-73
2022/05/24 00:09:20;;;;;;;2.30;0.60;;;16.80;72.40;;;;;;5114652;28;20422;-73
2022/05/24 00:11:45;;;;;;;1.38;0.50;;;16.80;72.10;;;;;;5114390;28;20027;-73
2022/05/24 00:14:11;;;;;;;1.90;0.40;;;16.80;72.10;;;;;;5114554;28;20106;-73
2022/05/24 00:16:37;;;;;;;1.70;0.52;;;16.80;72.00;;;;;;5114464;28;20019;-73
2022/05/24 00:19:03;;;;;;;2.83;0.60;;;16.80;71.80;;;;;;5114359;28;20035;-73
2022/05/24 00:21:28;;;;;;;1.02;0.38;;;16.80;71.80;;;;;;5114254;28;20055;-73
2022/05/24 00:23:54;;;;;;;2.13;0.35;;;16.80;70.90;;;;;;5114279;28;20494;-73
2022/05/24 00:26:31;;;;;;;7.05;0.90;;;16.80;70.70;;;;;;5114366;28;20492;-74
2022/05/24 00:28:57;;;;;;;1.25;0.45;;;16.80;70.60;;;;;;5114303;28;20386;-73
2022/05/24 00:31:23;;;;;;;1.92;0.57;;;16.80;70.00;;;;;;5114310;28;20102;-73
2022/05/24 00:33:48;;;;;;;0.65;0.50;;;16.80;69.70;;;;;;5114140;28;20111;-73
2022/05/24 00:36:15;;;;;;;2.08;0.40;;;16.80;70.00;;;;;;5114219;28;20076;-74
2022/05/24 00:38:41;;;;;;;1.80;0.52;;;16.70;70.10;;;;;;5114093;28;20490;-73
2022/05/24 00:41:17;;;;;;;1.13;0.50;;;16.80;69.10;;;;;;5114111;28;20019;-74
2022/05/24 00:43:49;;;;;;;1.25;0.30;;;16.80;69.00;;;;;;5113511;28;20031;-74
2022/05/24 00:46:22;;;;;;;0.63;0.60;;;16.70;68.60;;;;;;5113748;28;20023;-74
2022/05/24 00:48:50;;;;;;;1.23;0.50;;;16.70;68.80;;;;;;5113898;28;20026;-74
2022/05/24 00:51:24;;;;;;;1.27;0.45;;;16.70;68.70;;;;;;5113878;28;20059;-74
2022/05/24 00:53:53;;;;;;;1.63;0.80;;;16.70;68.50;;;;;;5113921;28;20080;-73
2022/05/24 00:56:27;;;;;;;1.95;0.57;;;16.70;68.40;;;;;;5095401;28;20024;-73
2022/05/24 00:58:58;;;;;;;2.08;0.35;;;16.70;68.00;;;;;;5113881;28;20027;-74
2022/05/24 01:01:31;;;;;;;0.80;0.50;;;16.70;67.80;;;;;;5113736;28;20051;-73
2022/05/24 01:03:57;;;;;;;1.00;0.40;;;16.70;68.00;;;;;;5113575;28;20035;-74
2022/05/24 01:06:24;;;;;;;1.45;0.70;;;16.70;68.50;;;;;;5113461;28;20380;-74
2022/05/24 01:08:52;;;;;;;1.45;0.40;;;16.70;68.10;;;;;;5113741;28;20075;-73
2022/05/24 01:11:19;;;;;;;2.17;0.68;;;16.70;68.10;;;;;;5113650;28;20027;-73
2022/05/24 01:13:45;;;;;;;2.10;0.63;;;16.60;68.30;;;;;;5113568;28;20484;-73
2022/05/24 01:16:13;;;;;;;1.48;0.40;;;16.60;68.60;;;;;;5113523;28;20032;-73
2022/05/24 01:18:38;;;;;;;0.70;0.57;;;16.50;68.20;;;;;;5113401;28;20403;-73
2022/05/24 01:21:09;;;;;;;1.50;0.70;;;16.50;68.40;;;;;;5113541;28;20035;-72
2022/05/24 01:23:54;;;;;;;2.28;0.50;;;16.60;67.70;;;;;;5093010;28;20044;-72
2022/05/24 01:26:38;;;;;;;3.85;1.05;;;16.50;67.80;;;;;;5093215;28;20065;-74
2022/05/24 01:29:08;;;;;;;2.78;1.05;;;16.70;74.50;;;;;;5093223;28;20107;-74
2022/05/24 01:37:06;;;;;;;3.88;0.50;;;17.40;66.00;;;;;;5093580;28;20104;-74
2022/05/24 01:39:32;;;;;;;2.38;0.63;;;17.40;65.80;;;;;;5093058;28;20034;-75
2022/05/24 01:41:58;;;;;;;4.75;1.00;;;17.40;66.00;;;;;;5092966;28;20028;-73
2022/05/24 01:44:56;;;;;;;1.55;0.55;;;17.50;66.80;;;;;;5092854;28;20028;-77
2022/05/24 01:47:22;;;;;;;1.88;0.50;;;17.60;65.70;;;;;;5086211;28;20028;-75
2022/05/24 01:49:53;;;;;;;5.72;0.65;;;17.60;65.20;;;;;;5092960;28;20055;-77
2022/05/24 01:52:30;;;;;;;0.70;0.52;;;17.60;66.00;;;;;;5092699;28;20430;-84
2022/05/24 01:55:08;;;;;;;7.72;1.25;;;17.60;66.40;;;;;;5092975;28;20028;-74
2022/05/24 01:57:39;;;;;;;2.63;0.52;;;17.60;66.50;;;;;;5096925;28;20382;-76
2022/05/24 02:00:09;;;;;;;2.28;0.50;;;17.60;66.20;;;;;;5096825;28;20043;-77
2022/05/24 02:02:35;;;;;;;1.52;0.77;;;17.60;65.90;;;;;;5098017;28;20028;-76
2022/05/24 02:05:00;;;;;;;1.70;0.65;;;17.60;66.10;;;;;;5098189;28;20484;-76
2022/05/24 02:07:26;;;;;;;3.03;0.85;;;17.50;66.40;;;;;;5096665;28;20016;-77
2022/05/24 02:09:55;;;;;;;1.65;0.50;;;17.50;67.90;;;;;;5078441;28;20032;-77
2022/05/24 02:12:30;;;;;;;1.50;0.70;;;17.60;67.00;;;;;;5096722;28;20024;-81
2022/05/24 02:15:17;;;;;;;1.20;0.60;;;17.60;67.40;;;;;;5096642;28;20016;-75
2022/05/24 02:17:51;;;;;;;1.35;0.50;;;17.50;67.50;;;;;;5096465;28;20386;-77
2022/05/24 02:20:39;;;;;;;1.50;0.50;;;17.40;68.60;;;;;;5096342;28;20023;-75
2022/05/24 02:23:05;;;;;;;3.30;0.65;;;17.40;69.10;;;;;;5096291;28;20055;-75
2022/05/24 02:25:44;;;;;;;7.00;0.70;;;17.30;69.90;;;;;;5096161;28;20033;-75
2022/05/24 02:28:12;;;;;;;4.35;0.63;;;17.30;70.40;;;;;;5078106;28;20106;-82
2022/05/24 02:30:43;;;;;;;1.85;0.50;;;17.20;70.80;;;;;;5096164;28;20039;-76
2022/05/24 02:33:08;;;;;;;5.57;0.82;;;17.20;71.10;;;;;;5096575;28;20422;-78
2022/05/24 02:35:34;;;;;;;1.10;0.60;;;17.10;71.70;;;;;;5096151;28;20024;-75
2022/05/24 02:37:59;;;;;;;1.38;0.52;;;17.00;71.60;;;;;;5096104;28;20024;-74
2022/05/24 02:43:09;;;;;;;1.35;0.38;;;17.00;72.40;;;;;;5095983;28;20035;-75
2022/05/24 02:45:35;;;;;;;2.38;0.75;;;16.90;71.90;;;;;;5095877;28;20040;-77
2022/05/24 02:48:01;;;;;;;5.07;1.00;;;16.90;73.20;;;;;;5095938;28;20024;-76
2022/05/24 02:50:26;;;;;;;1.30;0.60;;;16.80;72.80;;;;;;5079158;28;20040;-88
2022/05/24 02:52:53;;;;;;;1.95;0.60;;;16.80;73.00;;;;;;5101075;28;20020;-85
2022/05/24 02:55:18;;;;;;;1.75;0.57;;;16.70;73.60;;;;;;5099286;28;20028;-88
2022/05/24 02:57:44;;;;;;;1.48;0.63;;;16.70;73.60;;;;;;5097875;28;20024;-87
2022/05/24 03:00:17;;;;;;;2.10;0.77;;;16.70;74.00;;;;;;5097859;28;20036;-86
2022/05/24 03:02:43;;;;;;;0.98;0.55;;;16.80;73.70;;;;;;5097740;28;20106;-88
2022/05/24 03:05:10;;;;;;;4.80;0.77;;;16.80;74.00;;;;;;5096863;28;20509;-80
2022/05/24 03:10:21;;;;;;;3.15;0.88;;;16.80;73.90;;;;;;5095582;28;20080;-77
2022/05/24 03:15:31;;;;;;;3.65;0.50;;;16.80;74.00;;;;;;5095895;28;20023;-77
2022/05/24 03:17:56;;;;;;;1.45;0.60;;;16.80;74.30;;;;;;5095505;28;20024;-77
2022/05/24 03:20:22;;;;;;;3.25;0.80;;;16.80;73.90;;;;;;5095362;28;20472;-83
2022/05/24 03:22:48;;;;;;;3.22;0.82;;;16.70;74.40;;;;;;5109251;28;20084;-75
2022/05/24 03:25:14;;;;;;;1.00;0.60;;;16.70;74.90;;;;;;5115633;28;20111;-75
2022/05/24 03:27:40;;;;;;;4.78;0.98;;;16.60;75.10;;;;;;5115688;28;20019;-76
2022/05/24 03:30:07;;;;;;;2.88;0.80;;;16.70;75.30;;;;;;5115684;28;20473;-79
2022/05/24 03:32:33;;;;;;;1.30;0.85;;;16.70;74.80;;;;;;5116117;28;20016;-73
2022/05/24 03:35:02;;;;;;;1.40;0.82;;;16.70;74.50;;;;;;5115182;28;20099;-73
2022/05/24 03:37:28;;;;;;;1.45;0.77;;;16.70;74.40;;;;;;5115399;28;20020;-74
2022/05/24 03:39:54;;;;;;;0.75;0.50;;;16.60;74.40;;;;;;5115251;28;20023;-75
2022/05/24 03:42:19;;;;;;;0.93;0.60;;;16.50;74.80;;;;;;5115208;28;20022;-75
2022/05/24 03:44:45;;;;;;;4.07;1.05;;;16.40;75.00;;;;;;5114979;28;20046;-74
2022/05/24 03:47:10;;;;;;;2.22;0.50;;;16.40;75.20;;;;;;5114971;28;20494;-74
2022/05/24 03:49:36;;;;;;;1.40;0.73;;;16.40;75.40;;;;;;5114927;28;20519;-75
2022/05/24 03:52:02;;;;;;;2.55;1.05;;;16.40;75.60;;;;;;5114951;28;20016;-74
2022/05/24 03:54:27;;;;;;;2.33;1.00;;;16.30;75.70;;;;;;5096423;28;20495;-73
2022/05/24 03:59:37;;;;;;;3.40;1.50;;;16.30;75.80;;;;;;5114964;28;20035;-74
2022/05/24 04:02:04;;;;;;;2.67;1.02;;;16.20;75.80;;;;;;5114589;28;20019;-74
2022/05/24 04:04:30;;;;;;;3.00;1.33;;;16.20;75.80;;;;;;5096561;28;20023;-74
2022/05/24 04:06:56;;;;;;;4.90;1.63;;;16.20;76.10;;;;;;5114710;28;20543;-74
2022/05/24 04:09:21;;;;;;;3.70;1.10;;;16.20;75.90;;;;;;5114715;28;20387;-75
2022/05/24 04:11:47;;;;;;;3.95;1.33;;;16.30;75.70;;;;;;5114616;28;20026;-75
2022/05/24 04:14:12;;;;;;;2.88;0.80;;;16.30;75.20;;;;;;5114328;28;20039;-74
2022/05/24 04:16:38;;;;;;;2.97;1.10;;;16.20;74.20;;;;;;5113636;28;20452;-74
2022/05/24 04:19:03;;;;;;;2.90;1.30;;;16.20;73.90;;;;;;5114103;28;20468;-74
2022/05/24 04:21:29;;;;;;;5.03;2.10;;;16.20;73.60;;;;;;5114369;28;20040;-74
2022/05/24 04:23:55;;;;;;;2.00;1.17;;;16.20;72.60;;;;;;5114286;28;20053;-74
2022/05/24 04:26:20;;;;;;;5.30;1.10;;;16.20;72.10;;;;;;5114372;28;20020;-74
2022/05/24 04:28:46;;;;;;;10.18;1.10;;;16.10;71.90;;;;;;5114220;28;20024;-73
2022/05/24 04:31:11;;;;;;;4.70;1.00;;;16.10;71.40;;;;;;5114227;28;20057;-74
2022/05/24 04:33:37;;;;;;;4.40;0.73;;;16.10;69.80;;;;;;5096101;28;20023;-73
2022/05/24 04:36:03;;;;;;;1.95;0.90;;;16.10;69.10;;;;;;5114104;28;20027;-73
2022/05/24 04:38:28;;;;;;;3.30;0.68;;;16.00;69.40;;;;;;5114273;28;20024;-73
2022/05/24 04:43:38;;;;;;;1.58;0.55;;;15.90;66.30;;;;;;5114057;28;20043;-72
2022/05/24 04:46:04;;;;;;;3.83;0.85;;;16.00;66.20;;;;;;5114001;28;20036;-73
2022/05/24 04:48:29;;;;;;;3.42;0.70;;;16.00;66.40;;;;;;5113806;28;20045;-73
2022/05/24 04:50:56;;;;;;;1.30;0.85;;;16.00;66.50;;;;;;5113880;28;20459;-73
2022/05/24 04:53:23;;;;;;;0.73;0.60;;;16.00;67.00;;;;;;5113947;28;20020;-75
2022/05/24 04:55:49;;;;;;;4.20;1.00;;;16.00;66.20;;;;;;5113811;28;20357;-75
2022/05/24 04:58:18;;;;;;;2.47;0.55;;;16.00;66.40;;;;;;5113628;28;20034;-76
2022/05/24 05:00:46;;;;;;;6.10;0.82;;;15.90;66.30;;;;;;5113691;28;20024;-75
2022/05/24 05:03:13;;;;;;;7.03;0.95;;;15.90;66.30;;;;;;5113736;28;20023;-77
2022/05/24 05:05:39;;;;;;;6.28;1.10;;;15.90;66.40;;;;;;5113467;28;20042;-75
2022/05/24 05:08:06;;;;;;;4.57;0.88;;;15.90;66.60;;;;;;5113665;28;20039;-72
2022/05/24 05:10:34;;;;;;;1.85;1.00;;;15.90;66.50;;;;;;5113373;28;20032;-75
2022/05/24 05:13:03;;;;;;;4.20;0.77;;;15.90;67.30;;;;;;5113675;28;20050;-73
2022/05/24 05:15:29;;;;;;;3.65;0.60;;;15.90;66.80;;;;;;5113310;28;20039;-74
2022/05/24 05:18:22;;;;;;;1.77;0.70;;;15.80;66.90;;;;;;5113224;28;20023;-72
2022/05/24 05:20:49;;;;;;;8.18;1.15;;;15.90;66.60;;;;;;5108956;28;20499;-76
2022/05/24 05:23:16;;;;;;;1.70;0.70;;;15.90;67.40;;;;;;5112962;28;20047;-75
2022/05/24 05:25:48;;;;;;;2.28;0.60;;;15.90;67.50;;;;;;5112622;28;20050;-76
2022/05/24 05:28:14;;;;;;;7.07;0.88;;;15.80;67.50;;;;;;5112562;28;20087;-75
2022/05/24 05:33:25;;;;;;;4.57;1.00;;;15.80;68.10;;;;;;5119654;28;20034;-75
2022/05/24 05:35:50;;;;;;;1.30;0.47;;;15.80;67.50;;;;;;5119229;28;20094;-75
2022/05/24 05:38:17;;;;;;;1.77;0.70;;;15.80;67.80;;;;;;5119368;28;20070;-76
2022/05/24 05:40:43;;;;;;;2.33;0.70;;;15.80;68.90;;;;;;5119886;28;20376;-74
2022/05/24 05:43:09;;;;;;;1.77;0.88;;;15.80;67.00;;;;;;5101422;28;20028;-75
2022/05/24 05:45:35;;;;;;;5.72;0.90;;;15.80;67.70;;;;;;5119897;28;20097;-76
2022/05/24 05:48:01;;;;;;;3.53;0.80;;;15.90;66.70;;;;;;5119483;28;20520;-75
2022/05/24 05:50:26;;;;;;;2.55;0.50;;;15.80;67.20;;;;;;5119482;28;20054;-76
2022/05/24 05:52:52;;;;;;;8.25;1.17;;;15.80;66.90;;;;;;5101425;28;20472;-75
2022/05/24 05:55:21;;;;;;;2.55;0.93;;;15.90;67.00;;;;;;5101352;28;20032;-75
2022/05/24 05:57:47;;;;;;;5.53;0.68;;;15.90;66.80;;;;;;5119704;28;20023;-74
2022/05/24 06:00:14;;;;;;;4.20;0.90;;;15.80;66.00;;;;;;5119496;28;20031;-75
2022/05/24 06:02:41;;;;;;;3.25;0.70;;;15.90;66.00;;;;;;5119604;28;20031;-75
2022/05/24 06:05:07;;;;;;;2.65;0.63;;;15.90;67.00;;;;;;5119568;28;20468;-75
2022/05/24 06:07:33;;;;;;;2.88;0.70;;;16.00;66.50;;;;;;5119786;28;20050;-76
2022/05/24 06:09:59;;;;;;;4.15;0.70;;;16.00;65.90;;;;;;5119494;28;20471;-75
2022/05/24 06:12:25;;;;;;;2.60;0.55;;;16.00;66.70;;;;;;5119516;28;20034;-76
2022/05/24 06:14:50;;;;;;;5.57;0.50;;;16.00;67.10;;;;;;5119453;28;20073;-75
2022/05/24 06:17:16;;;;;;;1.33;0.50;;;16.00;66.80;;;;;;5101297;28;20027;-73
2022/05/24 06:19:43;;;;;;;2.35;0.63;;;16.10;67.00;;;;;;5119351;28;20027;-74
2022/05/24 06:22:10;;;;;;;2.15;0.60;;;16.10;67.10;;;;;;5119332;28;20055;-75
2022/05/24 06:24:37;;;;;;;3.08;0.90;;;16.10;67.20;;;;;;5119217;28;20039;-76
2022/05/24 06:27:03;;;;;;;3.40;0.70;;;16.20;66.70;;;;;;5100987;28;20016;-75
2022/05/24 06:29:32;;;;;;;6.30;0.80;;;16.40;66.40;;;;;;5119431;28;20559;-74
2022/05/24 06:31:59;;;;;;;1.90;0.73;;;16.40;65.90;;;;;;5119303;28;20019;-74
2022/05/24 06:34:25;;;;;;;3.30;0.63;;;16.40;66.00;;;;;;5119312;28;20289;-74
2022/05/24 06:36:50;;;;;;;7.93;1.17;;;16.40;66.10;;;;;;5119238;28;20122;-74
2022/05/24 06:39:16;;;;;;;3.22;0.85;;;16.30;66.70;;;;;;5119228;28;20072;-74
2022/05/24 06:41:41;;;;;;;5.63;0.90;;;16.30;67.10;;;;;;5117504;28;20023;-74
2022/05/24 06:44:07;;;;;;;2.67;0.65;;;16.30;66.30;;;;;;5097047;28;20108;-75
2022/05/24 06:46:33;;;;;;;3.97;0.55;;;16.30;66.90;;;;;;5115755;28;20023;-75
2022/05/24 06:48:59;;;;;;;1.42;0.50;;;16.10;67.50;;;;;;5115734;28;20038;-74
2022/05/24 06:51:24;;;;;;;3.97;1.02;;;16.10;67.60;;;;;;5097418;28;20035;-73
2022/05/24 06:53:51;;;;;;;2.45;0.60;;;16.00;68.10;;;;;;5115765;28;20403;-75
2022/05/24 06:56:17;;;;;;;5.65;1.10;;;15.90;68.90;;;;;;5115616;28;20055;-75
2022/05/24 06:58:43;;;;;;;1.50;0.63;;;15.80;69.80;;;;;;5115725;28;20463;-75
2022/05/24 07:03:55;;;;;;;1.20;0.65;;;15.80;70.90;;;;;;5116454;28;20038;-75
2022/05/24 07:06:21;;;;;;;4.68;0.38;;;15.80;68.90;;;;;;5115391;28;20111;-75
2022/05/24 07:08:48;;;;;;;2.00;0.20;;;14.60;73.30;;;;;;5115631;28;20015;-74
2022/05/24 07:11:17;;;;;;;5.05;0.25;;;13.90;74.70;;;;;;5115349;28;20515;-75
2022/05/24 07:13:43;;;;;;;0.30;0.20;;;13.30;78.40;;;;;;5115168;28;20015;-75
2022/05/24 07:16:09;;;;;;;4.03;1.05;;;13.10;80.20;;;;;;5115283;28;20107;-76
2022/05/24 07:18:36;;;;;;;2.08;0.20;;;13.00;80.80;;;;;;5097130;28;20020;-76
2022/05/24 07:21:02;;;;;;;1.10;0.28;;;12.90;79.90;;;;;;5115501;28;20031;-76
2022/05/24 07:23:28;;;;;;;2.38;0.25;;;12.90;80.50;;;;;;5115228;28;20095;-76
2022/05/24 07:26:05;;;;;;;1.25;0.30;;;12.80;82.50;;;;;;5096870;28;20060;-75
2022/05/24 07:28:31;;;;;;;3.38;0.50;;;12.90;82.30;;;;;;5115031;28;20020;-76
2022/05/24 07:30:57;;;;;;;0.90;0.40;;;12.80;82.80;;;;;;5115252;28;20027;-75
2022/05/24 07:33:23;;;;;;;1.08;0.47;;;13.00;82.00;;;;;;5115057;28;20027;-76
2022/05/24 07:35:48;;;;;;;3.58;0.60;;;13.10;81.80;;;;;;5115007;28;20023;-75
2022/05/24 07:38:14;;;;;;;1.10;0.60;;;13.20;80.80;;;;;;5096995;28;20059;-75
2022/05/24 07:46:12;;;;;;;0.90;0.40;;;13.70;79.90;;;;;;5123137;28;20415;-74
2022/05/24 07:48:38;;;;;;;5.03;2.22;;;13.90;79.80;;;;;;5115440;28;20031;-75
2022/05/24 07:51:04;;;;;;;2.38;0.32;;;13.90;79.10;;;;;;5114988;28;20032;-75
2022/05/24 07:53:31;;;;;;;1.05;0.50;;;13.90;80.00;;;;;;5114821;28;20034;-74
2022/05/24 07:55:57;;;;;;;1.73;0.70;;;14.10;78.60;;;;;;5114741;28;20019;-74
2022/05/24 07:58:23;;;;;;;3.03;0.40;;;14.10;76.60;;;;;;5114656;28;20038;-75
2022/05/24 08:00:49;;;;;;;2.58;0.40;;;13.90;78.40;;;;;;5114432;28;20092;-76
2022/05/24 08:03:15;;;;;;;1.25;0.30;;;14.20;77.10;;;;;;5114886;28;20479;-75
2022/05/24 08:05:41;;;;;;;3.08;0.80;;;14.20;76.00;;;;;;5115659;28;20092;-74
2022/05/24 08:08:08;;;;;;;2.22;0.38;;;14.30;78.40;;;;;;5115315;28;20392;-75
2022/05/24 08:10:36;;;;;;;2.00;0.50;;;14.40;77.10;;;;;;5114624;28;20027;-75
2022/05/24 08:13:05;;;;;;;1.30;0.40;;;14.50;76.00;;;;;;5114617;28;20020;-74
2022/05/24 08:15:31;;;;;;;0.90;0.28;;;14.50;75.30;;;;;;5114299;28;20054;-75
2022/05/24 08:17:57;;;;;;;1.90;0.55;;;14.40;76.60;;;;;;5114338;28;20149;-74
2022/05/24 08:20:23;;;;;;;0.52;0.30;;;14.60;76.10;;;;;;5114420;28;20020;-74
2022/05/24 08:22:49;;;;;;;6.95;0.45;;;14.70;73.40;;;;;;5113621;28;20047;-75
2022/05/24 08:25:15;;;;;;;3.13;1.55;;;14.70;71.40;;;;;;5114002;28;20035;-74
2022/05/24 08:27:41;;;;;;;1.40;0.40;;;14.90;70.80;;;;;;5095797;28;20126;-74
2022/05/24 08:30:09;;;;;;;0.10;0.10;;;15.00;69.20;;;;;;5113884;28;20102;-74
2022/05/24 08:32:34;;;;;;;0.13;0.10;;;15.10;68.60;;;;;;5113533;28;20020;-74
2022/05/24 08:35:00;;;;;;;2.03;0.15;;;15.40;68.80;;;;;;5113738;28;20031;-74
2022/05/24 08:37:26;;;;;;;0.38;0.17;;;15.40;69.20;;;;;;5113722;28;20020;-74
2022/05/24 08:39:53;;;;;;;0.75;0.10;;;15.30;67.80;;;;;;5113847;28;20433;-73
2022/05/24 08:42:52;;;;;;;0.40;0.20;;;15.30;67.20;;;;;;5095193;28;20023;-74
2022/05/24 08:48:26;;;;;;;0.22;0.10;;;15.30;68.20;;;;;;5113906;28;20035;-76
2022/05/24 08:51:04;;;;;;;0.50;0.30;;;15.30;65.60;;;;;;5113758;28;20157;-74
2022/05/24 08:53:42;;;;;;;0.90;0.22;;;15.40;65.50;;;;;;5113374;28;20019;-74
2022/05/24 08:56:11;;;;;;;0.90;0.65;;;15.40;66.60;;;;;;5113418;28;20087;-74
2022/05/24 08:58:41;;;;;;;0.60;0.60;;;15.60;64.30;;;;;;5113034;28;20027;-74
2022/05/24 09:01:17;;;;;;;0.47;0.17;;;15.60;63.80;;;;;;5113080;28;20023;-75
2022/05/24 09:03:43;;;;;;;0.95;0.30;;;15.40;64.00;;;;;;5113346;28;20240;-75
2022/05/24 09:06:22;;;;;;;1.63;0.22;;;15.40;63.90;;;;;;5112716;28;20136;-74
2022/05/24 09:09:16;;;;;;;0.40;0.20;;;15.50;62.90;;;;;;5113363;28;20027;-74
2022/05/24 09:12:00;;;;;;;1.98;0.47;;;15.60;61.90;;;;;;5097262;28;20472;-74
2022/05/24 09:15:06;;;;;;;2.05;0.20;;;15.80;61.60;;;;;;5091020;28;20016;-72
2022/05/24 09:17:49;;;;;;;0.77;0.20;;;15.90;59.60;;;;;;5092861;28;20020;-75
2022/05/24 09:20:24;;;;;;;0.63;0.25;;;16.20;60.00;;;;;;5092815;28;20019;-75
2022/05/24 09:22:50;;;;;;;0.45;0.45;;;16.50;60.80;;;;;;5093096;28;20054;-74
2022/05/24 09:25:16;;;;;;;0.70;0.28;;;16.70;58.90;;;;;;5092742;28;20043;-78
2022/05/24 09:27:53;;;;;;;1.27;0.40;;;16.40;57.50;;;;;;5092604;28;20400;-78
2022/05/24 09:30:36;;;;;;;3.17;0.30;;;16.70;56.60;;;;;;5092505;28;20020;-74
2022/05/24 09:33:25;;;;;;;0.45;0.20;;;16.70;56.70;;;;;;5092412;28;20024;-81
2022/05/24 09:35:58;;;;;;;0.93;0.30;;;16.80;56.80;;;;;;5092337;28;20388;-79
2022/05/24 09:38:36;;;;;;;1.75;0.45;;;17.00;57.80;;;;;;5091896;28;20487;-74
2022/05/24 09:41:12;;;;;;;1.00;0.40;;;16.90;54.50;;;;;;5092756;28;20107;-74
2022/05/24 09:43:40;;;;;;;0.70;0.30;;;16.90;53.80;;;;;;5092458;28;20078;-73
2022/05/24 09:46:36;;;;;;;2.05;0.35;;;16.90;53.10;;;;;;5092186;28;20028;-74
2022/05/24 09:49:18;;;;;;;;;;;16.80;54.10;;;;;;5080418;28;20115;-76
2022/05/24 09:51:44;;;;;;;0.38;0.20;;;16.90;50.90;;;;;;5092601;28;19995;-73
2022/05/24 09:54:20;;;;;;;0.93;0.50;;;17.10;51.90;;;;;;5092552;28;20030;-73
2022/05/24 09:57:03;;;;;;;0.35;0.25;;;17.50;51.40;;;;;;5091802;28;20047;-73
2022/05/24 09:59:29;;;;;;;0.73;0.32;;;17.60;48.60;;;;;;5092723;28;20082;-77
2022/05/24 10:01:56;;;;;;;0.50;0.30;;;17.70;47.20;;;;;;5092533;28;20443;-75
2022/05/24 10:04:25;;;;;;;2.35;0.22;;;17.70;47.70;;;;;;5073897;28;20028;-74
2022/05/24 10:06:57;;;;;;;0.60;0.20;;;17.60;48.00;;;;;;5090670;28;20020;-73
2022/05/24 10:09:43;;;;;;;1.13;0.20;;;17.30;49.60;;;;;;5092074;28;20104;-74
2022/05/24 10:12:18;;;;;;;;;;;17.20;48.40;;;;;;5092803;28;20016;-78
2022/05/24 10:15:17;;;;;;;0.95;0.30;;;16.90;48.60;;;;;;5073896;28;19943;-74
2022/05/24 10:17:51;;;;;;;1.10;0.30;;;17.30;48.20;;;;;;5076654;28;20031;-83
2022/05/24 10:20:49;;;;;;;0.47;0.30;;;17.30;50.00;;;;;;5095828;28;20104;-77
2022/05/24 10:23:43;;;;;;;2.42;0.35;;;17.50;49.80;;;;;;5077629;28;20051;-74
2022/05/24 10:26:51;;;;;;;0.98;0.40;;;17.60;46.40;;;;;;5075239;28;20036;-76
2022/05/24 10:29:29;;;;;;;0.88;0.50;;;17.80;45.40;;;;;;5067925;28;20070;-74
2022/05/24 10:31:59;;;;;;;1.02;0.55;;;17.80;45.90;;;;;;5075633;28;20032;-79
2022/05/24 10:41:10;;;;;;;0.80;0.20;;;18.50;45.50;;;;;;5075205;28;20103;-76
2022/05/24 10:44:01;;;;;;;0.30;0.30;;;18.80;45.00;;;;;;5075209;28;20151;-75
2022/05/24 10:47:07;;;;;;;1.35;1.08;;;18.70;41.30;;;;;;5074979;28;20067;-74
2022/05/24 10:49:48;;;;;;;0.55;0.22;;;18.70;43.30;;;;;;5067655;28;20119;-74
2022/05/24 10:52:22;;;;;;;0.95;0.45;;;18.70;42.50;;;;;;5074466;28;20081;-75
2022/05/24 10:55:07;;;;;;;0.40;0.40;;;18.60;40.20;;;;;;5074718;28;20066;-73
2022/05/24 10:57:44;;;;;;;1.60;0.57;;;18.20;40.30;;;;;;5074693;28;20522;-75
2022/05/24 11:00:17;;;;;;;0.47;0.20;;;18.00;40.00;;;;;;5074475;28;20099;-73
2022/05/24 11:03:00;;;;;;;0.93;0.38;;;17.70;42.10;;;;;;5074559;28;20036;-76
2022/05/24 11:05:29;;;;;;;1.30;0.38;;;17.70;43.20;;;;;;5074599;28;20037;-73
2022/05/24 11:08:21;;;;;;;0.35;0.30;;;17.80;40.40;;;;;;5074853;28;20036;-76
2022/05/24 11:10:49;;;;;;;0.30;0.30;;;17.90;40.80;;;;;;5066732;28;20504;-73
2022/05/24 11:13:26;;;;;;;1.38;0.38;;;18.00;40.30;;;;;;5074756;28;20202;-77
2022/05/24 11:15:56;;;;;;;0.68;0.30;;;18.30;41.80;;;;;;5073530;28;20021;-73
2022/05/24 11:18:25;;;;;;;1.13;0.52;;;18.40;39.70;;;;;;5056844;28;20385;-76
2022/05/24 11:21:07;;;;;;;0.38;0.30;;;18.10;39.90;;;;;;5074768;28;20016;-75
2022/05/24 11:23:37;;;;;;;1.08;0.40;;;18.40;40.60;;;;;;5056591;28;20044;-74
2022/05/24 11:26:18;;;;;;;0.65;0.30;;;18.20;39.60;;;;;;5074906;28;20433;-74
2022/05/24 11:28:50;;;;;;;3.65;0.47;;;18.20;40.80;;;;;;5073988;28;20052;-73
2022/05/24 11:31:28;;;;;;;4.13;0.57;;;18.40;41.60;;;;;;5074502;28;20024;-73
2022/05/24 11:33:57;;;;;;;1.50;0.30;;;18.50;41.50;;;;;;5074295;28;20040;-75
2022/05/24 11:36:43;;;;;;;1.15;0.40;;;18.60;40.60;;;;;;5074464;28;20028;-74
2022/05/24 11:39:26;;;;;;;1.27;0.10;;;18.60;40.30;;;;;;5074292;28;20025;-75
2022/05/24 11:42:25;;;;;;;2.22;0.30;;;19.10;40.30;;;;;;5074452;28;20048;-75
2022/05/24 11:44:57;;;;;;;0.98;0.30;;;19.20;40.80;;;;;;5073035;28;20391;-77
2022/05/24 11:47:35;;;;;;;0.68;0.25;;;18.50;41.50;;;;;;5074154;28;20024;-78
2022/05/24 11:50:40;;;;;;;0.25;0.25;;;18.60;41.80;;;;;;5073014;28;20102;-78
2022/05/24 11:53:19;;;;;;;1.35;0.17;;;18.80;41.80;;;;;;5074369;28;20028;-74
2022/05/24 11:55:56;;;;;;;0.65;0.20;;;19.00;41.20;;;;;;5074325;28;20016;-75
2022/05/24 11:58:22;;;;;;;1.45;0.30;;;19.30;41.60;;;;;;5074312;28;20025;-77
2022/05/24 12:01:00;;;;;;;0.35;0.20;;;19.50;39.80;;;;;;5074062;28;20481;-77
2022/05/24 12:09:26;;;;;;;1.33;0.30;;;18.80;39.10;;;;;;5073981;28;20028;-74
2022/05/24 12:12:13;;;;;;;1.60;0.40;;;18.60;40.60;;;;;;5073871;28;20104;-74
2022/05/24 12:14:41;;;;;;;0.63;0.28;;;18.70;40.60;;;;;;5073857;28;20385;-76
2022/05/24 12:17:06;;;;;;;1.08;0.50;;;18.90;40.10;;;;;;5073938;28;20024;-75
2022/05/24 12:19:35;;;;;;;1.95;0.32;;;18.90;39.00;;;;;;5073659;28;20024;-77
2022/05/24 12:22:06;;;;;;;0.85;0.25;;;19.00;40.30;;;;;;5080605;28;20528;-77
2022/05/24 12:24:37;;;;;;;0.98;0.40;;;19.00;39.40;;;;;;5093837;28;20050;-76
2022/05/24 12:27:33;;;;;;;0.77;0.22;;;19.00;39.20;;;;;;5093909;28;20028;-76
2022/05/24 12:30:17;;;;;;;1.00;0.38;;;19.40;39.10;;;;;;5075667;28;20438;-74
2022/05/24 12:32:42;;;;;;;2.35;0.30;;;19.80;37.00;;;;;;5093525;28;20020;-74
2022/05/24 12:35:12;;;;;;;1.95;0.52;;;20.30;37.40;;;;;;5093590;28;20357;-74
2022/05/24 12:37:45;;;;;;;1.25;0.45;;;20.20;37.20;;;;;;5093525;28;20020;-75
2022/05/24 12:40:17;;;;;;;0.65;0.40;;;20.40;36.30;;;;;;5092520;28;20091;-75
2022/05/24 12:42:47;;;;;;;0.70;0.38;;;20.40;38.40;;;;;;5093132;28;20093;-75
2022/05/24 12:45:15;;;;;;;1.45;0.30;;;20.80;36.20;;;;;;5093396;28;20039;-75
2022/05/24 12:47:42;;;;;;;1.00;0.28;;;20.70;35.60;;;;;;5093574;28;20020;-75
2022/05/24 12:50:21;;;;;;;1.00;0.30;;;20.50;34.20;;;;;;5093587;28;20433;-75
2022/05/24 12:52:46;;;;;;;0.80;0.32;;;20.50;33.90;;;;;;5093465;28;20077;-76
2022/05/24 12:55:54;;;;;;;2.42;1.30;;;20.40;34.90;;;;;;5093096;28;20020;-76
2022/05/24 12:58:28;;;;;;;3.20;0.68;;;20.40;34.90;;;;;;5093010;28;20141;-80
2022/05/24 13:01:26;;;;;;;1.88;0.50;;;20.20;34.80;;;;;;5091544;28;20093;-79
2022/05/24 13:04:07;;;;;;;0.77;0.30;;;19.70;35.50;;;;;;5093018;28;20024;-76
2022/05/24 13:06:39;;;;;;;1.17;0.40;;;19.40;35.20;;;;;;5093460;28;20046;-77
2022/05/24 13:09:14;;;;;;;1.58;0.40;;;19.40;35.30;;;;;;5091951;28;20383;-80
2022/05/24 13:11:40;;;;;;;1.55;0.20;;;19.60;34.60;;;;;;5093070;28;20532;-78
2022/05/24 13:14:15;;;;;;;3.10;0.40;;;19.80;35.40;;;;;;5092702;28;20032;-76
2022/05/24 13:16:41;;;;;;;1.17;0.50;;;20.00;34.40;;;;;;5093349;28;20016;-75
2022/05/24 13:19:07;;;;;;;1.58;0.40;;;20.10;33.50;;;;;;5093234;28;20039;-78
2022/05/24 13:21:35;;;;;;;1.88;0.50;;;19.80;34.00;;;;;;5092938;28;20439;-74
2022/05/24 13:24:17;;;;;;;0.30;0.30;;;19.50;34.60;;;;;;5093260;28;20361;-76
2022/05/24 13:27:04;;;;;;;2.47;0.40;;;19.30;35.70;;;;;;5093213;28;20024;-77
2022/05/24 13:29:30;;;;;;;1.33;0.63;;;19.50;35.40;;;;;;5095217;28;20028;-76
2022/05/24 13:34:59;;;;;;;2.47;0.30;;;20.00;37.10;;;;;;5093599;28;20027;-78
2022/05/24 13:37:44;;;;;;;2.80;0.40;;;20.20;38.30;;;;;;5074759;28;20045;-76
2022/05/24 13:40:11;;;;;;;2.40;0.45;;;20.40;35.70;;;;;;5092840;28;20024;-77
2022/05/24 13:42:57;;;;;;;1.80;0.60;;;20.20;37.00;;;;;;5092617;28;20028;-77
2022/05/24 13:45:26;;;;;;;1.30;0.50;;;20.50;35.90;;;;;;5092534;28;20053;-75
2022/05/24 13:47:55;;;;;;;1.67;0.40;;;20.80;36.10;;;;;;5092654;28;20537;-76
2022/05/24 13:50:37;;;;;;;3.30;0.55;;;20.70;35.20;;;;;;5092751;28;20514;-78
2022/05/24 13:53:07;;;;;;;3.13;0.80;;;20.60;35.50;;;;;;5096370;28;20117;-76
2022/05/24 13:55:52;;;;;;;0.75;0.40;;;20.90;35.90;;;;;;5096849;28;20022;-77
2022/05/24 13:58:18;;;;;;;1.67;0.68;;;21.20;34.60;;;;;;5095790;28;20118;-79